Weather observations for the past three days for
Zapata, TX
Imperial (Metric)
Date Time (cdt) Wind (mph) Vis. (mi.) Weather Sky Cond. Temperature (ºF) Relative Humidity Wind Chill (°F) Heat Index (°F) Pressure Precipitation (in)
Air Dwpt 6 hour altimeter (in) sea level (mb) 1 hr 3 hr 6 hr
Max. Min.
01 15:35 E 9 10.00 Fair CLR 105.8 61.2 23% 108 29.87 0.0
01 15:15 S 8 10.00 Fair CLR 105.8 59.5 22% 107 29.88 0.0
01 14:55 E 7 10.00 Fair CLR 105.1 60.6 23% 107 29.89 0.0
01 14:35 SE 9 G 16 10.00 Fair CLR 104.2 61.2 24% 106 29.9 0.0
01 14:15 E 5 10.00 Fair CLR 104.2 60.6 24% 106 29.91 0.0
01 13:55 E 8 10.00 Fair CLR 102.4 61.7 26% 104 29.92 0.0
01 13:35 SE 5 G 9 10.00 Fair CLR 102.2 64 29% 105 29.93 0.0
01 13:15 SE 12 10.00 Fair CLR 100.8 64.9 31% 104 29.94 0.0
01 12:55 SE 8 10.00 Fair CLR 99.7 64.6 99.7 78.4 32% 103 29.95 0.0
01 12:35 SE 8 G 16 10.00 Fair CLR 99.1 66.2 34% 103 29.96 0.0
01 12:15 SE 6 10.00 Fair CLR 97.2 68 39% 102 29.97 0.0
01 11:55 S 8 10.00 Fair CLR 95.7 70 43% 102 29.97 0.0
01 11:35 SE 8 10.00 Fair CLR 93.9 70.7 47% 101 29.98 0.0
01 11:15 SE 3 10.00 Fair CLR 92.7 71.1 49% 100 29.98 0.0
01 10:55 Calm 10.00 Fair CLR 91.2 71.8 53% 99 29.98 0.0
01 10:35 E 6 10.00 Fair CLR 90.3 72.1 55% 98 29.98 0.0
01 10:15 SE 3 10.00 Fair CLR 88.9 72.7 59% 97 29.98 0.0
01 09:35 SE 6 10.00 Fair CLR 85.8 73.4 67% 93 29.98 0.0
01 09:15 SE 6 10.00 Partly Cloudy SCT017 84.2 73.4 70% 91 29.98 0.0
01 08:55 SE 6 10.00 Fair CLR 83.1 73.8 73% 90 29.98 0.0
01 08:35 SE 5 10.00 Fair CLR 81.9 73.6 76% 88 29.98 0.0
01 08:15 Calm 10.00 Fair CLR 80.2 73.6 80% 85 29.98 0.0
01 07:55 Calm 10.00 Fair CLR 79 73.4 83% 82 29.96 0.0
01 07:35 SE 3 10.00 Fair CLR 78.4 73 84% 81 29.95 0.0
01 07:15 Calm 10.00 Fair CLR 78.8 73 83% 82 29.95 0.0
01 06:55 SE 3 10.00 Fair CLR 79.2 73.4 84.2 79.2 83% 83 29.95 0.0
01 06:35 Calm 10.00 Fair CLR 79.7 73.2 81% 84 29.95 0.0
01 06:15 Calm 10.00 Fair CLR 79.7 73 80% 84 29.94 0.0
01 05:55 SE 3 10.00 Fair CLR 80.1 73 79% 84 29.94 0.0
01 05:35 SE 3 10.00 Fair CLR 80.2 72.9 78% 84 29.94 0.0
01 05:15 SE 6 10.00 Fair CLR 80.6 72.9 77% 85 29.94 0.0
01 04:55 SE 7 10.00 Fair CLR 80.6 72.7 77% 85 29.94 0.0
01 04:35 SE 8 10.00 Fair CLR 80.8 72.7 76% 85 29.95 0.0
01 04:15 SE 6 10.00 Fair CLR 81 72.9 76% 86 29.95 0.0
01 03:55 SE 8 10.00 Fair CLR 81.5 72.9 75% 87 29.95 0.0
01 03:35 SE 7 10.00 Fair CLR 81.5 72.9 75% 87 29.95 0.0
01 03:15 SE 7 10.00 Fair CLR 81.5 72.9 75% 87 29.95 0.0
01 02:55 SE 8 10.00 Fair CLR 81.9 73 75% 87 29.95 0.0
01 02:35 SE 8 10.00 Fair CLR 82.2 72.9 73% 88 29.95 0.0
01 02:15 SE 9 G 16 10.00 Fair CLR 82.4 72.7 73% 88 29.95 0.0
01 01:55 SE 9 10.00 Fair CLR 82.8 72.1 70% 88 29.96 0.0
01 01:30 SE 8 G 17 10.00 Fair CLR 83.5 71.2 67% 88 29.97 0.0
01 01:15 SE 8 10.00 Fair CLR 83.8 70.7 65% 89 29.97 0.0
01 00:55 SE 8 10.00 Fair CLR 84.4 69.8 102.6 84.4 62% 89 29.97 0.0
01 00:35 SE 8 10.00 Fair CLR 85.1 68.9 58% 89 29.97 0.0
01 00:15 SE 7 G 17 10.00 Fair CLR 85.6 68.4 56% 89 29.97 0.0
31 23:55 SE 10 G 17 10.00 Fair CLR 86.2 68 55% 90 29.97 0.0
31 23:35 SE 10 G 16 10.00 Fair CLR 86.9 68 53% 90 29.97 0.0
31 23:15 SE 10 G 18 10.00 Fair CLR 87.6 67.6 52% 91 29.96 0.0
31 22:55 SE 10 G 20 10.00 Fair CLR 88.7 66.9 49% 92 29.96 0.0
31 22:35 SE 14 G 22 10.00 Fair CLR 89.6 66.2 46% 92 29.95 0.0
31 22:15 SE 15 G 23 10.00 Fair CLR 90.3 66.2 45% 93 29.94 0.0
31 21:55 SE 15 G 24 10.00 Fair CLR 91.4 65.3 42% 94 29.92 0.0
31 21:35 SE 13 G 25 10.00 Fair CLR 92.7 64.6 40% 95 29.9 0.0
31 21:15 SE 13 G 25 10.00 Fair CLR 94.1 62.2 35% 95 29.89 0.0
31 20:55 SE 15 G 24 10.00 Fair CLR 95.7 59.9 30% 96 29.87 0.0
31 20:35 SE 14 G 18 10.00 Fair CLR 96.8 59.9 29% 97 29.86 0.0
31 20:15 SE 7 G 16 10.00 Fair CLR 97.7 58.6 27% 97 29.85 0.0
31 19:55 SE 9 10.00 Fair CLR 98.8 57.4 25% 98 29.85 0.0
31 19:35 SE 12 G 20 10.00 Fair CLR 99.9 57.7 25% 99 29.84 0.0
31 19:15 SE 14 G 20 10.00 Fair CLR 101.5 57.2 23% 101 29.83 0.0
31 18:35 SE 14 G 20 10.00 Fair CLR 104 55 20% 103 29.82 0.0
31 18:15 SE 14 G 20 10.00 Fair CLR 104.5 55.6 20% 104 29.83 0.0
31 17:55 SE 8 G 17 10.00 Fair CLR 105.1 55.4 19% 104 29.83 0.0
31 17:35 SE 10 G 24 10.00 Fair CLR 106.2 55.8 19% 105 29.83 0.0
31 17:15 SE 9 G 18 10.00 Fair CLR 106.2 55.9 19% 105 29.83 0.0
31 16:55 SE 6 G 18 10.00 Fair CLR 106.5 55.4 18% 106 29.84 0.0
31 16:35 SE 10 G 18 10.00 Fair CLR 106.7 55.2 18% 106 29.85 0.0
31 16:15 SE 5 G 17 10.00 Fair CLR 106.9 56.5 19% 106 29.86 0.0
31 15:55 SE 9 G 22 10.00 Fair CLR 106.9 57 19% 107 29.87 0.0
31 15:35 SE 6 10.00 Fair CLR 106.9 55.4 18% 106 29.88 0.0
31 15:15 E 6 10.00 Fair CLR 106.7 55.8 19% 106 29.89 0.0
31 14:55 SE 9 10.00 Fair CLR 105.8 57.9 21% 106 29.9 0.0
31 14:35 E 14 G 18 10.00 Fair CLR 104.7 58.3 22% 105 29.9 0.0
31 14:15 SE 9 G 21 10.00 Fair CLR 103.5 60.3 24% 105 29.92 0.0
31 13:55 SE 9 G 20 10.00 Fair CLR 104.2 61.2 24% 106 29.92 0.0
31 13:35 SE 5 10.00 Fair CLR 102.9 62.2 26% 105 29.93 0.0
31 13:15 SE 8 G 16 10.00 Fair CLR 101.5 62.2 28% 103 29.94 0.0
31 12:55 E 7 10.00 Fair CLR 99.7 64.2 99.9 80.1 31% 103 29.95 0.0
31 12:35 SE 10 10.00 Fair CLR 99.7 63.7 31% 102 29.95 0.0
31 12:15 SE 9 10.00 Fair CLR 98.8 65.1 33% 102 29.96 0.0
31 11:55 SE 7 10.00 Fair CLR 96.4 67.1 38% 101 29.96 0.0
31 11:35 SE 12 G 16 10.00 Fair CLR 93.9 69.6 45% 100 29.97 0.0
31 11:15 SE 6 10.00 Fair CLR 93 70.3 48% 99 29.97 0.0
31 10:55 SE 6 10.00 Fair CLR 91.8 71.2 51% 99 29.97 0.0
31 10:35 S 7 10.00 Fair CLR 90.9 71.8 54% 98 29.98 0.0
31 10:15 S 3 10.00 Fair CLR 89.6 72.5 57% 97 29.98 0.0
31 09:55 SE 8 10.00 Partly Cloudy SCT022 88 72.7 61% 95 29.98 0.0
31 09:35 S 8 10.00 Partly Cloudy SCT020 86.4 73.6 66% 94 29.98 0.0
31 09:15 S 6 10.00 Partly Cloudy SCT016 85.1 74.1 70% 93 29.98 0.0
31 08:55 SE 9 7.00 Fair CLR 83.5 74.3 74% 91 29.97 0.0
31 08:35 SE 5 7.00 Fair CLR 82.4 74.3 77% 89 29.97 0.0
31 08:15 SE 6 7.00 Fair CLR 81.5 74.3 79% 87 29.96 0.0
31 07:55 SE 5 7.00 Fair CLR 80.6 74.3 81% 86 29.95 0.0
31 07:35 SE 5 7.00 Fair CLR 80.1 73.9 82% 85 29.94 0.0
31 07:15 SE 3 10.00 Fair CLR 80.2 73.6 80% 85 29.94 0.0
31 06:55 SE 3 10.00 Fair CLR 80.6 73.8 85.6 80.6 80% 85 29.94 0.0
31 06:35 SE 5 10.00 Fair CLR 80.8 73.4 78% 86 29.93 0.0
31 06:15 SE 5 10.00 Fair CLR 81.1 73.4 77% 86 29.93 0.0
31 05:55 SE 3 10.00 Fair CLR 81.5 73.4 77% 87 29.93 0.0
31 05:35 SE 6 10.00 Fair CLR 81.7 73 75% 87 29.92 0.0
31 05:15 SE 6 10.00 Fair CLR 82 73 74% 87 29.93 0.0
31 04:55 SE 5 10.00 Fair CLR 82.4 72.9 73% 88 29.93 0.0
31 04:35 SE 6 10.00 Fair CLR 82.4 72.9 73% 88 29.93 0.0
31 04:15 SE 8 10.00 Fair CLR 82.6 72.9 73% 88 29.93 0.0
31 03:55 SE 6 10.00 Fair CLR 82.8 72.7 72% 88 29.93 0.0
31 03:35 SE 9 10.00 Fair CLR 83.1 72.5 70% 89 29.94 0.0
31 03:15 SE 8 G 17 10.00 Fair CLR 83.3 72.3 70% 89 29.95 0.0
31 02:55 SE 8 G 17 10.00 Fair CLR 83.3 72.5 70% 89 29.94 0.0
31 02:35 SE 9 G 17 10.00 Fair CLR 83.7 72.5 69% 90 29.94 0.0
31 02:15 SE 12 10.00 Fair CLR 84 72.5 68% 90 29.95 0.0
31 01:55 SE 10 G 16 10.00 Fair CLR 84.2 72 67% 90 29.96 0.0
31 01:35 SE 7 G 17 10.00 Fair CLR 84.6 71.6 65% 90 29.95 0.0
31 01:15 SE 12 G 17 10.00 Fair CLR 85.1 71.2 63% 91 29.96 0.0
31 00:55 SE 10 G 20 10.00 Fair CLR 86 70.2 102.2 86 59% 91 29.96 0.0
31 00:35 SE 9 G 22 10.00 Fair CLR 86.4 70.3 59% 91 29.96 0.0
31 00:15 SE 14 G 24 10.00 Fair CLR 86.9 70.3 58% 92 29.95 0.0
30 23:55 SE 12 G 17 10.00 Fair CLR 87.4 70.2 57% 93 29.95 0.0
30 23:35 SE 12 G 24 10.00 Fair CLR 88.2 70.3 56% 94 29.95 0.0
30 23:15 SE 13 G 21 10.00 Fair CLR 88.9 70.5 55% 95 29.94 0.0
30 22:55 SE 17 G 22 10.00 Fair CLR 89.6 70 52% 95 29.93 0.0
30 22:35 SE 15 G 22 10.00 Fair CLR 90.5 69.4 50% 96 29.92 0.0
30 22:15 SE 15 G 22 10.00 Fair CLR 91 69.1 49% 96 29.91 0.0
30 21:55 SE 14 G 21 10.00 Fair CLR 91.4 70 50% 97 29.9 0.0
30 21:35 SE 12 G 22 10.00 Fair CLR 91.8 70 49% 98 29.89 0.0
30 21:15 SE 14 G 22 10.00 Fair CLR 92.5 70.7 49% 99 29.87 0.0
30 20:55 E 18 G 24 10.00 Fair CLR 93.2 71.1 49% 100 29.87 0.0
30 20:35 E 14 G 26 10.00 Fair CLR 94.1 71.2 48% 102 29.86 0.0
30 20:15 SE 16 G 30 10.00 Fair CLR 95.4 70 44% 102 29.85 0.0
30 19:55 E 8 10.00 Fair CLR 99.1 59.7 27% 99 29.85 0.0
30 19:35 SE 10 G 17 10.00 Fair CLR 100.4 59.9 26% 101 29.84 0.0
30 19:15 SE 9 G 16 10.00 Fair CLR 101.3 59.5 25% 102 29.84 0.0
30 18:55 SE 7 10.00 Fair CLR 102.2 60.1 106.2 99.5 25% 103 29.83 0.0
30 18:35 SE 6 10.00 Fair CLR 101.8 60.3 25% 103 29.83 0.0
30 18:15 SE 7 G 17 10.00 Fair CLR 103.1 59.9 24% 104 29.83 0.0
30 17:55 SE 8 10.00 Partly Cloudy SCT090 104.4 60.1 23% 105 29.83 0.0
30 17:35 E 6 10.00 Mostly Cloudy BKN090 105.6 60.8 23% 107 29.83 0.0
30 17:15 S 6 10.00 Fair CLR 103.3 60.4 25% 104 29.84 0.0
30 16:55 SE 13 G 17 10.00 Fair CLR 104.9 61 24% 107 29.84 0.0
30 16:35 SE 12 G 23 10.00 Fair CLR 104.5 61.7 25% 107 29.84 0.0
30 16:15 SE 10 10.00 Fair CLR 104.9 61.7 24% 107 29.85 0.0
30 15:55 SE 6 10.00 Fair CLR 104.4 62.1 25% 107 29.86 0.0
30 15:35 SE 3 10.00 Partly Cloudy SCT075 106.2 62.4 24% 109 29.87 0.0
30 15:15 E 9 G 16 10.00 Fair CLR 104.2 62.4 26% 107 29.88 0.0
30 14:55 SE 12 G 18 10.00 Partly Cloudy SCT070 104.4 63 26% 107 29.9 0.0
30 14:35 S 8 10.00 Partly Cloudy SCT070 102.9 64.2 28% 106 29.91 0.0
30 14:15 E 5 10.00 Partly Cloudy SCT070 103.3 64.6 28% 107 29.92 0.0
30 13:55 S 7 G 16 10.00 Fair CLR 102 64.6 30% 106 29.93 0.0
30 13:35 SE 8 10.00 Partly Cloudy SCT060 102.2 64.9 30% 106 29.94 0.0
30 13:15 SE 9 10.00 Partly Cloudy SCT060 100.6 65.8 32% 105 29.95 0.0
30 12:55 SE 5 G 17 10.00 Fair CLR 99.3 66 99.3 78.8 34% 103 29.97 0.0
30 12:35 E 9 10.00 Fair CLR 98.4 66.9 36% 103 29.98 0.0
30 12:15 SE 5 G 18 10.00 Fair CLR 97.2 69.1 40% 103 29.99 0.0
30 11:55 S 12 G 16 10.00 Fair CLR 95.5 69.8 43% 102 30 0.0
30 11:35 SE 7 G 17 10.00 Fair CLR 94.5 70 45% 101 30 0.0
30 11:15 S 7 10.00 Fair CLR 93.4 70.9 48% 100 30 0.0
30 10:55 SE 3 10.00 Fair CLR 91.9 72 52% 100 30 0.0
30 10:35 SE 9 10.00 Fair CLR 91.4 72.5 54% 99 29.99 0.0
30 10:15 S 8 10.00 Fair CLR 90 72.9 57% 98 29.99 0.0
30 09:55 S 8 10.00 Fair CLR 88.7 73.4 61% 97 29.99 0.0
30 09:35 SE 8 10.00 Fair CLR 86.7 73.9 66% 95 29.99 0.0
30 09:15 SE 9 10.00 Fair CLR 85.1 74.3 70% 93 29.98 0.0
30 08:55 SE 6 10.00 Fair CLR 83.5 74.3 74% 91 29.98 0.0
30 08:35 SE 6 10.00 Fair CLR 82 74.3 77% 88 29.98 0.0
30 08:15 SE 5 10.00 Fair CLR 80.6 74.1 81% 86 29.98 0.0
30 07:55 E 5 10.00 Fair CLR 79.5 73.8 83% 84 29.98 0.0
30 07:35 E 3 10.00 Fair CLR 78.8 73.6 84% 82 29.98 0.0
30 07:15 E 3 10.00 Fair CLR 79.2 73.8 84% 83 29.97 0.0
30 06:55 SE 3 10.00 Fair CLR 79.7 73.9 85.5 79.7 83% 84 29.97 0.0
30 06:35 SE 5 10.00 Fair CLR 79.9 73.9 82% 84 29.96 0.0
30 06:15 E 5 10.00 Fair CLR 80.2 73.8 81% 85 29.96 0.0
30 05:55 SE 5 10.00 Fair CLR 80.6 73.9 80% 86 29.95 0.0
30 05:35 SE 6 10.00 Fair CLR 80.8 73.8 79% 86 29.95 0.0
30 05:15 SE 6 10.00 Fair CLR 81 73.6 78% 86 29.96 0.0
30 04:55 SE 5 10.00 Fair CLR 81.3 73.6 77% 87 29.96 0.0
30 04:35 SE 6 10.00 Fair CLR 81.5 73.4 77% 87 29.96 0.0
30 04:15 SE 7 10.00 Fair CLR 81.5 73.4 77% 87 29.96 0.0
30 03:55 SE 6 10.00 Fair CLR 81.9 73.4 76% 87 29.96 0.0
30 03:35 SE 5 10.00 Fair CLR 82.4 73.4 74% 88 29.97 0.0
30 03:15 SE 6 10.00 Fair CLR 82.4 73.2 74% 88 29.97 0.0
30 02:55 SE 5 10.00 Fair CLR 82.8 73 73% 89 29.97 0.0
30 02:35 SE 7 10.00 Fair CLR 83.3 72.9 71% 89 29.98 0.0
30 02:15 SE 8 10.00 Fair CLR 83.5 72.5 70% 89 29.98 0.0
30 01:55 SE 10 G 16 10.00 Fair CLR 84.2 72 67% 90 29.99 0.0
30 01:35 SE 14 10.00 Fair CLR 84.6 71.6 65% 90 29.99 0.0
30 01:15 SE 7 10.00 Fair CLR 85.3 71.2 63% 91 30 0.0
30 00:55 SE 7 10.00 Fair CLR 85.6 71.4 101.5 85.6 63% 91 29.99 0.0
30 00:35 SE 8 G 16 10.00 Fair CLR 86.2 70.9 60% 92 30 0.0
30 00:15 SE 10 G 18 10.00 Fair CLR 86.9 70.7 59% 92 30 0.0
29 23:55 SE 9 G 20 10.00 Fair CLR 87.3 70.3 57% 92 29.99 0.0
29 23:35 SE 9 10.00 Fair CLR 87.8 70.2 56% 93 29.99 0.0
29 23:15 SE 8 G 17 10.00 Fair CLR 88.2 70.7 56% 94 29.99 0.0
29 22:55 SE 10 G 16 10.00 Fair CLR 88.7 70.7 55% 94 29.98 0.0
29 22:35 SE 13 G 20 10.00 Fair CLR 89.2 70.7 54% 95 29.97 0.0
29 22:15 SE 12 G 18 10.00 Fair CLR 89.8 70.9 54% 96 29.97 0.0
29 21:55 SE 12 G 21 10.00 Fair CLR 90.1 70.9 53% 96 29.96 0.0
29 21:35 SE 15 G 22 10.00 Fair CLR 90.5 70.9 53% 97 29.94 0.0
29 21:15 SE 13 G 21 10.00 Fair CLR 91.4 70.9 51% 98 29.94 0.0
29 20:55 E 12 G 20 10.00 Fair CLR 91.9 70.7 50% 98 29.92 0.0
29 20:35 SE 17 G 23 10.00 Fair CLR 92.7 70.5 49% 99 29.92 0.0
29 20:15 E 16 G 25 10.00 Fair CLR 94.1 69.1 44% 100 29.91 0.0
29 19:55 E 16 G 23 10.00 Fair CLR 95.9 67.1 39% 100 29.91 0.0
29 19:35 E 10 G 20 10.00 Partly Cloudy SCT090 97.5 66.2 36% 101 29.9 0.0
29 19:15 E 14 G 20 10.00 Partly Cloudy SCT090 99 65.5 33% 103 29.9 0.0
29 18:55 E 10 10.00 Fair CLR 101.8 59 104.9 98.2 24% 102 29.89 0.0
29 18:35 SE 9 G 17 10.00 Fair CLR 102.2 59.2 24% 103 29.89 0.0
29 18:15 E 10 G 17 10.00 Partly Cloudy SCT085 SCT110 102.6 59.4 24% 103 29.89 0.0
29 17:55 S 8 10.00 Partly Cloudy SCT085 SCT110 103.5 60.1 24% 104 29.89 0.0
29 17:35 S 10 10.00 Mostly Cloudy SCT085 BKN110 103.1 59.9 24% 104 29.89 0.0
29 17:15 SE 8 10.00 Fair CLR 104 59.9 24% 105 29.89 0.0
29 16:55 SE 9 10.00 Partly Cloudy SCT085 103.1 60.8 25% 104 29.9 0.0
29 16:35 SE 12 G 17 10.00 Fair CLR 104 61.2 25% 106 29.9 0.0
29 16:15 SE 8 10.00 Partly Cloudy SCT080 102.7 61.2 26% 104 29.92 0.0
29 15:55 E 9 10.00 Partly Cloudy SCT090 SCT110 103.5 61.2 25% 105 29.93 0.0
Date Time (cdt) Wind (mph) Vis. (mi.) Weather Sky Cond. Air Dwpt Max. Min. Relative Humidity Wind Chill (°F) Heat Index (°F) altimeter (in) sea level (mb) 1 hr 3 hr 6 hr
6 hour
Temperature (ºF) Pressure Precipitation (in)